sensor_id;sensor_type;location;lat;lon;timestamp;P1;durP1;ratioP1;P2;durP2;ratioP2
14554;SDS011;7364;50.870;4.722;2024-01-11T00:02:05;45.07;;;24.60;;
14554;SDS011;7364;50.870;4.722;2024-01-11T00:04:32;38.07;;;23.90;;
14554;SDS011;7364;50.870;4.722;2024-01-11T00:07:00;34.73;;;21.73;;
14554;SDS011;7364;50.870;4.722;2024-01-11T00:09:27;35.87;;;21.70;;
14554;SDS011;7364;50.870;4.722;2024-01-11T00:11:54;33.40;;;21.00;;
14554;SDS011;7364;50.870;4.722;2024-01-11T00:14:21;33.10;;;18.83;;
14554;SDS011;7364;50.870;4.722;2024-01-11T00:16:49;36.07;;;21.83;;
14554;SDS011;7364;50.870;4.722;2024-01-11T00:19:19;35.07;;;20.60;;
14554;SDS011;7364;50.870;4.722;2024-01-11T00:21:46;29.70;;;19.63;;
14554;SDS011;7364;50.870;4.722;2024-01-11T00:24:13;34.60;;;19.57;;
14554;SDS011;7364;50.870;4.722;2024-01-11T00:26:41;37.77;;;20.17;;
14554;SDS011;7364;50.870;4.722;2024-01-11T00:29:08;33.53;;;19.37;;
14554;SDS011;7364;50.870;4.722;2024-01-11T00:31:35;35.40;;;19.27;;
14554;SDS011;7364;50.870;4.722;2024-01-11T00:34:03;36.20;;;19.67;;
14554;SDS011;7364;50.870;4.722;2024-01-11T00:36:31;32.03;;;20.30;;
14554;SDS011;7364;50.870;4.722;2024-01-11T00:38:59;32.90;;;20.13;;
14554;SDS011;7364;50.870;4.722;2024-01-11T00:41:27;40.57;;;20.70;;
14554;SDS011;7364;50.870;4.722;2024-01-11T00:43:54;37.57;;;21.97;;
14554;SDS011;7364;50.870;4.722;2024-01-11T00:46:21;38.50;;;21.60;;
14554;SDS011;7364;50.870;4.722;2024-01-11T00:48:48;31.50;;;20.83;;
14554;SDS011;7364;50.870;4.722;2024-01-11T00:51:15;39.77;;;22.43;;
14554;SDS011;7364;50.870;4.722;2024-01-11T00:53:44;37.57;;;21.87;;
14554;SDS011;7364;50.870;4.722;2024-01-11T00:56:17;40.83;;;21.90;;
14554;SDS011;7364;50.870;4.722;2024-01-11T00:58:45;38.27;;;20.60;;
14554;SDS011;7364;50.870;4.722;2024-01-11T01:01:13;40.33;;;21.13;;
14554;SDS011;7364;50.870;4.722;2024-01-11T01:03:41;35.90;;;20.53;;
14554;SDS011;7364;50.870;4.722;2024-01-11T01:06:08;32.57;;;20.03;;
14554;SDS011;7364;50.870;4.722;2024-01-11T01:08:35;34.43;;;19.80;;
14554;SDS011;7364;50.870;4.722;2024-01-11T01:11:04;33.60;;;19.87;;
14554;SDS011;7364;50.870;4.722;2024-01-11T01:13:31;39.53;;;20.93;;
14554;SDS011;7364;50.870;4.722;2024-01-11T01:15:59;39.73;;;21.40;;
14554;SDS011;7364;50.870;4.722;2024-01-11T01:18:26;37.47;;;20.97;;
14554;SDS011;7364;50.870;4.722;2024-01-11T01:20:53;39.87;;;20.20;;
14554;SDS011;7364;50.870;4.722;2024-01-11T01:23:20;31.40;;;18.90;;
14554;SDS011;7364;50.870;4.722;2024-01-11T01:25:48;34.63;;;21.17;;
14554;SDS011;7364;50.870;4.722;2024-01-11T01:28:17;34.00;;;20.33;;
14554;SDS011;7364;50.870;4.722;2024-01-11T01:30:44;33.80;;;19.20;;
14554;SDS011;7364;50.870;4.722;2024-01-11T01:33:11;40.17;;;20.17;;
14554;SDS011;7364;50.870;4.722;2024-01-11T01:35:38;38.20;;;21.17;;
14554;SDS011;7364;50.870;4.722;2024-01-11T01:38:05;36.57;;;22.47;;
14554;SDS011;7364;50.870;4.722;2024-01-11T01:40:32;31.13;;;19.50;;
14554;SDS011;7364;50.870;4.722;2024-01-11T01:43:00;32.83;;;18.90;;
14554;SDS011;7364;50.870;4.722;2024-01-11T01:45:28;37.50;;;20.27;;
14554;SDS011;7364;50.870;4.722;2024-01-11T01:47:55;36.93;;;22.10;;
14554;SDS011;7364;50.870;4.722;2024-01-11T01:50:26;38.67;;;21.37;;
14554;SDS011;7364;50.870;4.722;2024-01-11T01:52:53;32.47;;;19.70;;
14554;SDS011;7364;50.870;4.722;2024-01-11T01:55:21;36.43;;;19.67;;
14554;SDS011;7364;50.870;4.722;2024-01-11T01:57:49;28.67;;;18.83;;
14554;SDS011;7364;50.870;4.722;2024-01-11T02:00:17;31.60;;;18.40;;
14554;SDS011;7364;50.870;4.722;2024-01-11T02:02:46;32.93;;;19.23;;
14554;SDS011;7364;50.870;4.722;2024-01-11T02:05:17;33.93;;;18.97;;
14554;SDS011;7364;50.870;4.722;2024-01-11T02:07:45;32.93;;;18.37;;
14554;SDS011;7364;50.870;4.722;2024-01-11T02:10:15;28.07;;;18.57;;
14554;SDS011;7364;50.870;4.722;2024-01-11T02:12:43;30.80;;;19.10;;
14554;SDS011;7364;50.870;4.722;2024-01-11T02:15:10;32.53;;;20.47;;
14554;SDS011;7364;50.870;4.722;2024-01-11T02:17:39;31.37;;;18.50;;
14554;SDS011;7364;50.870;4.722;2024-01-11T02:20:09;32.27;;;19.17;;
14554;SDS011;7364;50.870;4.722;2024-01-11T02:22:38;33.33;;;19.07;;
14554;SDS011;7364;50.870;4.722;2024-01-11T02:25:10;28.77;;;19.30;;
14554;SDS011;7364;50.870;4.722;2024-01-11T02:27:46;30.40;;;18.60;;
14554;SDS011;7364;50.870;4.722;2024-01-11T02:30:14;32.87;;;18.63;;
14554;SDS011;7364;50.870;4.722;2024-01-11T02:32:43;35.57;;;18.37;;
14554;SDS011;7364;50.870;4.722;2024-01-11T02:35:11;35.73;;;19.93;;
14554;SDS011;7364;50.870;4.722;2024-01-11T02:37:39;37.63;;;19.50;;
14554;SDS011;7364;50.870;4.722;2024-01-11T02:40:07;33.13;;;19.00;;
14554;SDS011;7364;50.870;4.722;2024-01-11T02:42:37;32.90;;;20.00;;
14554;SDS011;7364;50.870;4.722;2024-01-11T02:45:04;35.30;;;19.17;;
14554;SDS011;7364;50.870;4.722;2024-01-11T02:47:32;32.77;;;18.07;;
14554;SDS011;7364;50.870;4.722;2024-01-11T02:49:59;31.60;;;19.00;;
14554;SDS011;7364;50.870;4.722;2024-01-11T02:52:26;31.73;;;18.67;;
14554;SDS011;7364;50.870;4.722;2024-01-11T02:54:53;34.60;;;18.10;;
14554;SDS011;7364;50.870;4.722;2024-01-11T02:57:22;32.17;;;18.17;;
14554;SDS011;7364;50.870;4.722;2024-01-11T02:59:49;34.50;;;19.57;;
14554;SDS011;7364;50.870;4.722;2024-01-11T03:02:17;35.43;;;18.63;;
14554;SDS011;7364;50.870;4.722;2024-01-11T03:04:44;28.93;;;18.80;;
14554;SDS011;7364;50.870;4.722;2024-01-11T03:07:12;33.37;;;19.00;;
14554;SDS011;7364;50.870;4.722;2024-01-11T03:09:39;34.13;;;18.83;;
14554;SDS011;7364;50.870;4.722;2024-01-11T03:12:06;30.17;;;17.70;;
14554;SDS011;7364;50.870;4.722;2024-01-11T03:14:35;30.80;;;17.90;;
14554;SDS011;7364;50.870;4.722;2024-01-11T03:17:02;33.00;;;18.73;;
14554;SDS011;7364;50.870;4.722;2024-01-11T03:19:30;33.93;;;18.60;;
14554;SDS011;7364;50.870;4.722;2024-01-11T03:21:58;32.03;;;18.43;;
14554;SDS011;7364;50.870;4.722;2024-01-11T03:24:31;36.53;;;18.77;;
14554;SDS011;7364;50.870;4.722;2024-01-11T03:26:58;31.30;;;18.70;;
14554;SDS011;7364;50.870;4.722;2024-01-11T03:29:25;29.77;;;17.67;;
14554;SDS011;7364;50.870;4.722;2024-01-11T03:31:54;33.60;;;17.70;;
14554;SDS011;7364;50.870;4.722;2024-01-11T03:34:21;31.57;;;19.30;;
14554;SDS011;7364;50.870;4.722;2024-01-11T03:36:48;30.87;;;17.37;;
14554;SDS011;7364;50.870;4.722;2024-01-11T03:39:16;32.37;;;19.73;;
14554;SDS011;7364;50.870;4.722;2024-01-11T03:41:43;30.83;;;17.87;;
14554;SDS011;7364;50.870;4.722;2024-01-11T03:44:13;34.30;;;19.33;;
14554;SDS011;7364;50.870;4.722;2024-01-11T03:46:41;28.67;;;18.27;;
14554;SDS011;7364;50.870;4.722;2024-01-11T03:49:10;29.60;;;18.50;;
14554;SDS011;7364;50.870;4.722;2024-01-11T03:51:38;36.23;;;18.00;;
14554;SDS011;7364;50.870;4.722;2024-01-11T03:54:05;32.63;;;17.37;;
14554;SDS011;7364;50.870;4.722;2024-01-11T03:56:32;38.17;;;19.50;;
14554;SDS011;7364;50.870;4.722;2024-01-11T03:58:59;34.40;;;18.63;;
14554;SDS011;7364;50.870;4.722;2024-01-11T04:01:26;36.13;;;20.37;;
14554;SDS011;7364;50.870;4.722;2024-01-11T04:03:53;31.90;;;19.27;;
14554;SDS011;7364;50.870;4.722;2024-01-11T04:06:22;32.07;;;19.30;;
14554;SDS011;7364;50.870;4.722;2024-01-11T04:08:50;32.10;;;18.27;;
14554;SDS011;7364;50.870;4.722;2024-01-11T04:11:18;34.30;;;20.97;;
14554;SDS011;7364;50.870;4.722;2024-01-11T04:13:45;31.63;;;17.97;;
14554;SDS011;7364;50.870;4.722;2024-01-11T04:16:12;38.07;;;19.50;;
14554;SDS011;7364;50.870;4.722;2024-01-11T04:18:39;29.87;;;18.60;;
14554;SDS011;7364;50.870;4.722;2024-01-11T04:21:07;28.37;;;17.27;;
14554;SDS011;7364;50.870;4.722;2024-01-11T04:23:35;37.80;;;19.47;;
14554;SDS011;7364;50.870;4.722;2024-01-11T04:26:03;31.30;;;20.00;;
14554;SDS011;7364;50.870;4.722;2024-01-11T04:28:30;32.07;;;19.13;;
14554;SDS011;7364;50.870;4.722;2024-01-11T04:31:00;33.27;;;19.23;;
14554;SDS011;7364;50.870;4.722;2024-01-11T04:33:27;34.93;;;20.27;;
14554;SDS011;7364;50.870;4.722;2024-01-11T04:35:54;26.00;;;18.33;;
14554;SDS011;7364;50.870;4.722;2024-01-11T04:38:21;32.13;;;19.37;;
14554;SDS011;7364;50.870;4.722;2024-01-11T04:40:50;28.37;;;18.27;;
14554;SDS011;7364;50.870;4.722;2024-01-11T04:43:18;34.43;;;19.13;;
14554;SDS011;7364;50.870;4.722;2024-01-11T04:45:45;37.00;;;20.23;;
14554;SDS011;7364;50.870;4.722;2024-01-11T04:48:13;32.60;;;19.07;;
14554;SDS011;7364;50.870;4.722;2024-01-11T04:50:40;37.93;;;20.57;;
14554;SDS011;7364;50.870;4.722;2024-01-11T04:53:08;38.70;;;18.70;;
14554;SDS011;7364;50.870;4.722;2024-01-11T04:55:36;30.83;;;19.57;;
14554;SDS011;7364;50.870;4.722;2024-01-11T04:58:05;27.47;;;18.67;;
14554;SDS011;7364;50.870;4.722;2024-01-11T05:00:32;30.03;;;18.83;;
14554;SDS011;7364;50.870;4.722;2024-01-11T05:02:59;33.93;;;19.07;;
14554;SDS011;7364;50.870;4.722;2024-01-11T05:05:26;34.93;;;19.20;;
14554;SDS011;7364;50.870;4.722;2024-01-11T05:07:53;40.20;;;19.90;;
14554;SDS011;7364;50.870;4.722;2024-01-11T05:10:20;30.53;;;18.67;;
14554;SDS011;7364;50.870;4.722;2024-01-11T05:12:47;32.53;;;20.57;;
14554;SDS011;7364;50.870;4.722;2024-01-11T05:15:16;32.03;;;19.90;;
14554;SDS011;7364;50.870;4.722;2024-01-11T05:17:43;34.97;;;20.57;;
14554;SDS011;7364;50.870;4.722;2024-01-11T05:20:11;31.90;;;19.33;;
14554;SDS011;7364;50.870;4.722;2024-01-11T05:22:38;35.67;;;19.47;;
14554;SDS011;7364;50.870;4.722;2024-01-11T05:25:05;38.93;;;19.73;;
14554;SDS011;7364;50.870;4.722;2024-01-11T05:27:32;32.30;;;19.87;;
14554;SDS011;7364;50.870;4.722;2024-01-11T05:30:00;29.57;;;19.40;;
14554;SDS011;7364;50.870;4.722;2024-01-11T05:32:29;31.17;;;18.70;;
14554;SDS011;7364;50.870;4.722;2024-01-11T05:34:56;28.60;;;19.03;;
14554;SDS011;7364;50.870;4.722;2024-01-11T05:37:23;35.43;;;19.80;;
14554;SDS011;7364;50.870;4.722;2024-01-11T05:39:50;38.23;;;20.33;;
14554;SDS011;7364;50.870;4.722;2024-01-11T05:42:19;32.20;;;19.17;;
14554;SDS011;7364;50.870;4.722;2024-01-11T05:44:46;35.63;;;19.40;;
14554;SDS011;7364;50.870;4.722;2024-01-11T05:47:13;34.90;;;18.73;;
14554;SDS011;7364;50.870;4.722;2024-01-11T05:49:42;36.20;;;19.80;;
14554;SDS011;7364;50.870;4.722;2024-01-11T05:52:10;29.27;;;18.60;;
14554;SDS011;7364;50.870;4.722;2024-01-11T05:54:37;31.93;;;18.80;;
14554;SDS011;7364;50.870;4.722;2024-01-11T05:57:04;33.23;;;19.17;;
14554;SDS011;7364;50.870;4.722;2024-01-11T05:59:32;33.00;;;20.03;;
14554;SDS011;7364;50.870;4.722;2024-01-11T06:01:59;30.03;;;19.50;;
14554;SDS011;7364;50.870;4.722;2024-01-11T06:04:27;33.87;;;20.23;;
14554;SDS011;7364;50.870;4.722;2024-01-11T06:06:56;36.70;;;19.27;;
14554;SDS011;7364;50.870;4.722;2024-01-11T06:09:23;29.87;;;18.37;;
14554;SDS011;7364;50.870;4.722;2024-01-11T06:11:50;38.73;;;21.17;;
14554;SDS011;7364;50.870;4.722;2024-01-11T06:14:18;33.23;;;20.03;;
14554;SDS011;7364;50.870;4.722;2024-01-11T06:16:46;30.93;;;18.93;;
14554;SDS011;7364;50.870;4.722;2024-01-11T06:19:13;32.83;;;19.93;;
14554;SDS011;7364;50.870;4.722;2024-01-11T06:21:40;29.13;;;18.70;;
14554;SDS011;7364;50.870;4.722;2024-01-11T06:24:08;31.97;;;18.30;;
14554;SDS011;7364;50.870;4.722;2024-01-11T06:26:36;33.23;;;19.77;;
14554;SDS011;7364;50.870;4.722;2024-01-11T06:29:03;37.43;;;20.23;;
14554;SDS011;7364;50.870;4.722;2024-01-11T06:31:30;40.83;;;21.33;;
14554;SDS011;7364;50.870;4.722;2024-01-11T06:33:58;29.90;;;19.13;;
14554;SDS011;7364;50.870;4.722;2024-01-11T06:36:25;33.77;;;19.53;;
14554;SDS011;7364;50.870;4.722;2024-01-11T06:38:52;38.00;;;18.67;;
14554;SDS011;7364;50.870;4.722;2024-01-11T06:41:21;32.53;;;19.13;;
14554;SDS011;7364;50.870;4.722;2024-01-11T06:43:49;37.33;;;21.23;;
14554;SDS011;7364;50.870;4.722;2024-01-11T06:46:19;36.00;;;19.57;;
14554;SDS011;7364;50.870;4.722;2024-01-11T06:48:47;38.50;;;19.30;;
14554;SDS011;7364;50.870;4.722;2024-01-11T06:51:14;30.80;;;19.60;;
14554;SDS011;7364;50.870;4.722;2024-01-11T06:53:42;31.47;;;19.03;;
14554;SDS011;7364;50.870;4.722;2024-01-11T06:56:13;33.50;;;21.10;;
14554;SDS011;7364;50.870;4.722;2024-01-11T06:58:44;33.47;;;20.17;;
14554;SDS011;7364;50.870;4.722;2024-01-11T07:01:12;31.07;;;20.07;;
14554;SDS011;7364;50.870;4.722;2024-01-11T07:03:39;30.13;;;19.90;;
14554;SDS011;7364;50.870;4.722;2024-01-11T07:06:07;34.07;;;20.23;;
14554;SDS011;7364;50.870;4.722;2024-01-11T07:08:34;34.50;;;20.03;;
14554;SDS011;7364;50.870;4.722;2024-01-11T07:11:02;44.27;;;21.50;;
14554;SDS011;7364;50.870;4.722;2024-01-11T07:13:29;37.67;;;20.13;;
14554;SDS011;7364;50.870;4.722;2024-01-11T07:15:58;35.20;;;19.77;;
14554;SDS011;7364;50.870;4.722;2024-01-11T07:18:28;36.17;;;21.13;;
14554;SDS011;7364;50.870;4.722;2024-01-11T07:20:56;37.43;;;22.10;;
14554;SDS011;7364;50.870;4.722;2024-01-11T07:23:24;39.13;;;21.50;;
14554;SDS011;7364;50.870;4.722;2024-01-11T07:25:51;40.17;;;20.83;;
14554;SDS011;7364;50.870;4.722;2024-01-11T07:28:18;33.53;;;18.67;;
14554;SDS011;7364;50.870;4.722;2024-01-11T07:30:50;36.67;;;21.23;;
14554;SDS011;7364;50.870;4.722;2024-01-11T07:33:20;33.83;;;20.20;;
14554;SDS011;7364;50.870;4.722;2024-01-11T07:35:47;34.40;;;20.23;;
14554;SDS011;7364;50.870;4.722;2024-01-11T07:38:15;37.63;;;19.87;;
14554;SDS011;7364;50.870;4.722;2024-01-11T07:40:42;33.40;;;19.87;;
14554;SDS011;7364;50.870;4.722;2024-01-11T07:43:09;49.13;;;26.73;;
14554;SDS011;7364;50.870;4.722;2024-01-11T07:45:39;37.17;;;24.07;;
14554;SDS011;7364;50.870;4.722;2024-01-11T07:48:06;50.60;;;26.80;;
14554;SDS011;7364;50.870;4.722;2024-01-11T07:50:35;70.27;;;33.60;;
14554;SDS011;7364;50.870;4.722;2024-01-11T07:53:02;41.07;;;25.93;;
14554;SDS011;7364;50.870;4.722;2024-01-11T07:55:30;48.00;;;26.50;;
14554;SDS011;7364;50.870;4.722;2024-01-11T07:57:58;49.83;;;27.80;;
14554;SDS011;7364;50.870;4.722;2024-01-11T08:00:25;39.83;;;24.57;;
14554;SDS011;7364;50.870;4.722;2024-01-11T08:02:52;41.13;;;24.63;;
14554;SDS011;7364;50.870;4.722;2024-01-11T08:05:19;45.83;;;23.87;;
14554;SDS011;7364;50.870;4.722;2024-01-11T08:07:48;44.50;;;25.60;;
14554;SDS011;7364;50.870;4.722;2024-01-11T08:10:15;50.70;;;26.13;;
14554;SDS011;7364;50.870;4.722;2024-01-11T08:12:42;43.50;;;23.00;;
14554;SDS011;7364;50.870;4.722;2024-01-11T08:15:09;36.87;;;22.57;;
14554;SDS011;7364;50.870;4.722;2024-01-11T08:17:37;43.57;;;23.83;;
14554;SDS011;7364;50.870;4.722;2024-01-11T08:20:05;39.63;;;21.67;;
14554;SDS011;7364;50.870;4.722;2024-01-11T08:22:34;39.23;;;22.73;;
14554;SDS011;7364;50.870;4.722;2024-01-11T08:25:04;41.80;;;22.67;;
14554;SDS011;7364;50.870;4.722;2024-01-11T08:27:32;55.03;;;27.70;;
14554;SDS011;7364;50.870;4.722;2024-01-11T08:29:59;98.50;;;41.07;;
14554;SDS011;7364;50.870;4.722;2024-01-11T08:32:27;69.43;;;35.23;;
14554;SDS011;7364;50.870;4.722;2024-01-11T08:34:56;47.07;;;25.93;;
14554;SDS011;7364;50.870;4.722;2024-01-11T08:37:23;44.60;;;22.53;;
14554;SDS011;7364;50.870;4.722;2024-01-11T08:39:50;36.67;;;22.97;;
14554;SDS011;7364;50.870;4.722;2024-01-11T08:42:19;37.70;;;23.13;;
14554;SDS011;7364;50.870;4.722;2024-01-11T08:44:46;36.77;;;21.77;;
14554;SDS011;7364;50.870;4.722;2024-01-11T08:47:13;32.77;;;21.37;;
14554;SDS011;7364;50.870;4.722;2024-01-11T08:49:41;37.53;;;22.33;;
14554;SDS011;7364;50.870;4.722;2024-01-11T08:52:08;41.53;;;23.73;;
14554;SDS011;7364;50.870;4.722;2024-01-11T08:54:35;42.87;;;22.23;;
14554;SDS011;7364;50.870;4.722;2024-01-11T08:57:03;37.23;;;22.63;;
14554;SDS011;7364;50.870;4.722;2024-01-11T08:59:32;39.43;;;23.43;;
14554;SDS011;7364;50.870;4.722;2024-01-11T09:01:59;44.93;;;23.33;;
14554;SDS011;7364;50.870;4.722;2024-01-11T09:04:26;39.13;;;22.67;;
14554;SDS011;7364;50.870;4.722;2024-01-11T09:06:54;38.57;;;21.77;;
14554;SDS011;7364;50.870;4.722;2024-01-11T09:09:22;39.60;;;21.70;;
14554;SDS011;7364;50.870;4.722;2024-01-11T09:11:49;34.07;;;20.23;;
14554;SDS011;7364;50.870;4.722;2024-01-11T09:14:17;36.00;;;20.50;;
14554;SDS011;7364;50.870;4.722;2024-01-11T09:16:45;39.80;;;22.97;;
14554;SDS011;7364;50.870;4.722;2024-01-11T09:19:14;48.47;;;25.37;;
14554;SDS011;7364;50.870;4.722;2024-01-11T09:21:41;40.77;;;26.07;;
14554;SDS011;7364;50.870;4.722;2024-01-11T09:24:08;38.87;;;23.73;;
14554;SDS011;7364;50.870;4.722;2024-01-11T09:26:35;38.07;;;22.43;;
14554;SDS011;7364;50.870;4.722;2024-01-11T09:29:02;33.67;;;20.27;;
14554;SDS011;7364;50.870;4.722;2024-01-11T09:31:30;36.30;;;21.77;;
14554;SDS011;7364;50.870;4.722;2024-01-11T09:33:58;32.73;;;19.80;;
14554;SDS011;7364;50.870;4.722;2024-01-11T09:36:25;36.03;;;20.13;;
14554;SDS011;7364;50.870;4.722;2024-01-11T09:38:52;36.33;;;21.30;;
14554;SDS011;7364;50.870;4.722;2024-01-11T09:41:20;44.43;;;25.53;;
14554;SDS011;7364;50.870;4.722;2024-01-11T09:43:48;54.87;;;30.30;;
14554;SDS011;7364;50.870;4.722;2024-01-11T09:46:19;37.20;;;22.97;;
14554;SDS011;7364;50.870;4.722;2024-01-11T09:48:47;41.40;;;23.30;;
14554;SDS011;7364;50.870;4.722;2024-01-11T09:51:18;34.67;;;20.83;;
14554;SDS011;7364;50.870;4.722;2024-01-11T09:53:45;79.57;;;36.70;;
14554;SDS011;7364;50.870;4.722;2024-01-11T09:56:17;46.73;;;26.37;;
14554;SDS011;7364;50.870;4.722;2024-01-11T09:58:45;46.70;;;24.07;;
14554;SDS011;7364;50.870;4.722;2024-01-11T10:01:15;38.23;;;24.33;;
14554;SDS011;7364;50.870;4.722;2024-01-11T10:03:43;47.40;;;26.53;;
14554;SDS011;7364;50.870;4.722;2024-01-11T10:06:11;45.10;;;25.20;;
14554;SDS011;7364;50.870;4.722;2024-01-11T10:08:42;39.60;;;25.00;;
14554;SDS011;7364;50.870;4.722;2024-01-11T10:11:10;42.23;;;25.20;;
14554;SDS011;7364;50.870;4.722;2024-01-11T10:13:37;43.70;;;25.37;;
14554;SDS011;7364;50.870;4.722;2024-01-11T10:16:05;47.23;;;26.43;;
14554;SDS011;7364;50.870;4.722;2024-01-11T10:18:34;31.50;;;23.13;;
14554;SDS011;7364;50.870;4.722;2024-01-11T10:21:02;64.43;;;30.83;;
14554;SDS011;7364;50.870;4.722;2024-01-11T10:23:35;35.70;;;24.00;;
14554;SDS011;7364;50.870;4.722;2024-01-11T10:26:05;39.23;;;23.83;;
14554;SDS011;7364;50.870;4.722;2024-01-11T10:28:33;40.30;;;24.50;;
14554;SDS011;7364;50.870;4.722;2024-01-11T10:31:02;38.50;;;23.80;;
14554;SDS011;7364;50.870;4.722;2024-01-11T10:33:33;43.40;;;25.53;;
14554;SDS011;7364;50.870;4.722;2024-01-11T10:36:00;34.37;;;25.23;;
14554;SDS011;7364;50.870;4.722;2024-01-11T10:38:28;34.43;;;24.47;;
14554;SDS011;7364;50.870;4.722;2024-01-11T10:40:58;42.53;;;23.57;;
14554;SDS011;7364;50.870;4.722;2024-01-11T10:43:28;34.53;;;23.93;;
14554;SDS011;7364;50.870;4.722;2024-01-11T10:45:59;41.20;;;23.43;;
14554;SDS011;7364;50.870;4.722;2024-01-11T10:48:29;41.87;;;23.60;;
14554;SDS011;7364;50.870;4.722;2024-01-11T10:50:58;39.23;;;23.93;;
14554;SDS011;7364;50.870;4.722;2024-01-11T10:53:28;47.17;;;28.23;;
14554;SDS011;7364;50.870;4.722;2024-01-11T10:56:03;59.17;;;33.60;;
14554;SDS011;7364;50.870;4.722;2024-01-11T10:58:33;84.07;;;43.40;;
14554;SDS011;7364;50.870;4.722;2024-01-11T11:01:06;48.03;;;26.60;;
14554;SDS011;7364;50.870;4.722;2024-01-11T11:03:34;36.27;;;25.10;;
14554;SDS011;7364;50.870;4.722;2024-01-11T11:06:03;38.80;;;25.47;;
14554;SDS011;7364;50.870;4.722;2024-01-11T11:08:32;36.40;;;25.47;;
14554;SDS011;7364;50.870;4.722;2024-01-11T11:11:00;46.77;;;26.97;;
14554;SDS011;7364;50.870;4.722;2024-01-11T11:13:31;42.87;;;28.43;;
14554;SDS011;7364;50.870;4.722;2024-01-11T11:16:00;42.77;;;26.57;;
14554;SDS011;7364;50.870;4.722;2024-01-11T11:18:29;57.87;;;34.67;;
14554;SDS011;7364;50.870;4.722;2024-01-11T11:20:57;45.17;;;28.07;;
14554;SDS011;7364;50.870;4.722;2024-01-11T11:23:25;87.10;;;39.77;;
14554;SDS011;7364;50.870;4.722;2024-01-11T11:25:53;38.83;;;26.77;;
14554;SDS011;7364;50.870;4.722;2024-01-11T11:28:22;33.13;;;24.53;;
14554;SDS011;7364;50.870;4.722;2024-01-11T11:30:51;34.33;;;22.77;;
14554;SDS011;7364;50.870;4.722;2024-01-11T11:33:22;50.63;;;29.53;;
14554;SDS011;7364;50.870;4.722;2024-01-11T11:35:51;40.20;;;25.60;;
14554;SDS011;7364;50.870;4.722;2024-01-11T11:38:21;38.30;;;23.27;;
14554;SDS011;7364;50.870;4.722;2024-01-11T11:40:51;36.00;;;22.30;;
14554;SDS011;7364;50.870;4.722;2024-01-11T11:43:20;28.33;;;21.07;;
14554;SDS011;7364;50.870;4.722;2024-01-11T11:45:48;30.80;;;20.33;;
14554;SDS011;7364;50.870;4.722;2024-01-11T11:51:20;32.50;;;22.60;;
14554;SDS011;7364;50.870;4.722;2024-01-11T11:53:48;37.33;;;22.53;;
14554;SDS011;7364;50.870;4.722;2024-01-11T11:56:17;37.40;;;22.43;;
14554;SDS011;7364;50.870;4.722;2024-01-11T11:58:45;34.93;;;22.73;;
14554;SDS011;7364;50.870;4.722;2024-01-11T12:01:14;38.17;;;21.93;;
14554;SDS011;7364;50.870;4.722;2024-01-11T12:03:43;29.30;;;20.93;;
14554;SDS011;7364;50.870;4.722;2024-01-11T12:06:14;36.53;;;22.07;;
14554;SDS011;7364;50.870;4.722;2024-01-11T12:08:43;33.50;;;21.37;;
14554;SDS011;7364;50.870;4.722;2024-01-11T12:11:12;35.83;;;22.53;;
14554;SDS011;7364;50.870;4.722;2024-01-11T12:13:40;42.33;;;25.87;;
14554;SDS011;7364;50.870;4.722;2024-01-11T12:16:06;39.43;;;23.73;;
14554;SDS011;7364;50.870;4.722;2024-01-11T12:18:35;36.00;;;21.77;;
14554;SDS011;7364;50.870;4.722;2024-01-11T12:21:02;39.37;;;22.30;;
14554;SDS011;7364;50.870;4.722;2024-01-11T12:23:30;31.43;;;21.27;;
14554;SDS011;7364;50.870;4.722;2024-01-11T12:25:58;35.17;;;22.50;;
14554;SDS011;7364;50.870;4.722;2024-01-11T12:28:27;36.70;;;22.50;;
14554;SDS011;7364;50.870;4.722;2024-01-11T12:30:54;35.57;;;21.80;;
14554;SDS011;7364;50.870;4.722;2024-01-11T12:33:21;35.30;;;21.30;;
14554;SDS011;7364;50.870;4.722;2024-01-11T12:35:50;37.90;;;22.53;;
14554;SDS011;7364;50.870;4.722;2024-01-11T12:38:17;34.97;;;20.93;;
14554;SDS011;7364;50.870;4.722;2024-01-11T12:40:45;34.33;;;21.60;;
14554;SDS011;7364;50.870;4.722;2024-01-11T12:43:13;37.13;;;20.43;;
14554;SDS011;7364;50.870;4.722;2024-01-11T12:45:41;34.37;;;20.50;;
14554;SDS011;7364;50.870;4.722;2024-01-11T12:48:09;31.13;;;19.97;;
14554;SDS011;7364;50.870;4.722;2024-01-11T12:50:39;36.20;;;20.20;;
14554;SDS011;7364;50.870;4.722;2024-01-11T12:53:09;32.47;;;20.57;;
14554;SDS011;7364;50.870;4.722;2024-01-11T12:55:43;40.70;;;24.27;;
14554;SDS011;7364;50.870;4.722;2024-01-11T12:58:10;33.30;;;20.77;;
14554;SDS011;7364;50.870;4.722;2024-01-11T13:00:37;34.43;;;20.00;;
14554;SDS011;7364;50.870;4.722;2024-01-11T13:03:05;31.97;;;20.43;;
14554;SDS011;7364;50.870;4.722;2024-01-11T13:05:33;33.23;;;19.80;;
14554;SDS011;7364;50.870;4.722;2024-01-11T13:08:02;32.13;;;19.60;;
14554;SDS011;7364;50.870;4.722;2024-01-11T13:10:35;32.53;;;20.40;;
14554;SDS011;7364;50.870;4.722;2024-01-11T13:13:02;29.97;;;17.60;;
14554;SDS011;7364;50.870;4.722;2024-01-11T13:15:30;26.67;;;17.07;;
14554;SDS011;7364;50.870;4.722;2024-01-11T13:17:57;30.73;;;18.53;;
14554;SDS011;7364;50.870;4.722;2024-01-11T13:20:26;27.37;;;16.80;;
14554;SDS011;7364;50.870;4.722;2024-01-11T13:25:40;25.97;;;17.40;;
14554;SDS011;7364;50.870;4.722;2024-01-11T13:28:08;32.27;;;18.70;;
14554;SDS011;7364;50.870;4.722;2024-01-11T13:30:36;27.57;;;17.83;;
14554;SDS011;7364;50.870;4.722;2024-01-11T13:33:04;24.57;;;17.73;;
14554;SDS011;7364;50.870;4.722;2024-01-11T13:35:33;28.37;;;16.20;;
14554;SDS011;7364;50.870;4.722;2024-01-11T13:38:00;32.63;;;17.03;;
14554;SDS011;7364;50.870;4.722;2024-01-11T13:40:29;30.57;;;19.53;;
14554;SDS011;7364;50.870;4.722;2024-01-11T13:42:57;26.83;;;18.13;;
14554;SDS011;7364;50.870;4.722;2024-01-11T13:45:24;25.37;;;18.03;;
14554;SDS011;7364;50.870;4.722;2024-01-11T13:47:53;30.33;;;18.00;;
14554;SDS011;7364;50.870;4.722;2024-01-11T13:50:20;25.93;;;16.57;;
14554;SDS011;7364;50.870;4.722;2024-01-11T13:52:49;32.67;;;17.77;;
14554;SDS011;7364;50.870;4.722;2024-01-11T13:55:16;30.33;;;18.57;;
14554;SDS011;7364;50.870;4.722;2024-01-11T13:57:45;37.33;;;21.57;;
14554;SDS011;7364;50.870;4.722;2024-01-11T14:00:13;34.03;;;19.37;;
14554;SDS011;7364;50.870;4.722;2024-01-11T14:02:43;49.67;;;24.07;;
14554;SDS011;7364;50.870;4.722;2024-01-11T14:05:10;58.80;;;27.90;;
14554;SDS011;7364;50.870;4.722;2024-01-11T14:07:39;45.97;;;23.60;;
14554;SDS011;7364;50.870;4.722;2024-01-11T14:10:07;33.73;;;21.03;;
14554;SDS011;7364;50.870;4.722;2024-01-11T14:12:34;28.60;;;17.57;;
14554;SDS011;7364;50.870;4.722;2024-01-11T14:15:04;30.47;;;17.40;;
14554;SDS011;7364;50.870;4.722;2024-01-11T14:17:32;23.77;;;16.70;;
14554;SDS011;7364;50.870;4.722;2024-01-11T14:20:00;24.00;;;15.43;;
14554;SDS011;7364;50.870;4.722;2024-01-11T14:22:28;29.77;;;16.47;;
14554;SDS011;7364;50.870;4.722;2024-01-11T14:24:57;22.17;;;15.00;;
14554;SDS011;7364;50.870;4.722;2024-01-11T14:27:24;20.60;;;14.57;;
14554;SDS011;7364;50.870;4.722;2024-01-11T14:29:51;23.70;;;15.47;;
14554;SDS011;7364;50.870;4.722;2024-01-11T14:32:20;24.30;;;15.77;;
14554;SDS011;7364;50.870;4.722;2024-01-11T14:34:47;28.07;;;15.73;;
14554;SDS011;7364;50.870;4.722;2024-01-11T14:37:14;24.83;;;14.27;;
14554;SDS011;7364;50.870;4.722;2024-01-11T14:39:41;25.80;;;15.43;;
14554;SDS011;7364;50.870;4.722;2024-01-11T14:42:09;23.47;;;14.27;;
14554;SDS011;7364;50.870;4.722;2024-01-11T14:44:36;23.83;;;15.63;;